Time;durP1;ratioP1;P1;durP2;ratioP2;P2;SDS_P1;SDS_P2;PMS_P1;PMS_P2;Temp;Humidity;BMP_temperature;BMP_pressure;BME280_temperature;BME280_humidity;BME280_pressure;Samples;Min_cycle;Max_cycle;Signal;HPM_P1;HPM_P2
2022/06/08 00:01:34;;;;;;;;;25.67;23.33;;;;;22.66;62.35;100476.20;110692;1258;20488;-49
2022/06/08 00:04:01;;;;;;;;;24.33;23.00;;;;;22.66;62.30;100475.57;110712;1257;19273;-47
2022/06/08 00:06:28;;;;;;;;;27.33;23.00;;;;;22.64;62.21;100474.08;110789;1257;19831;-49
2022/06/08 00:08:55;;;;;;;;;26.33;23.00;;;;;22.54;62.51;100478.45;110807;1258;20341;-49
2022/06/08 00:11:23;;;;;;;;;24.33;23.00;;;;;22.57;62.36;100480.74;110755;1257;23093;-48
2022/06/08 00:13:50;;;;;;;;;22.00;22.00;;;;;22.55;62.48;100478.04;110779;1258;19605;-48
2022/06/08 00:16:17;;;;;;;;;24.33;22.33;;;;;22.56;62.61;100475.10;110627;1258;20299;-48
2022/06/08 00:18:45;;;;;;;;;22.67;22.33;;;;;22.56;62.55;100472.58;110760;1257;19157;-49
2022/06/08 00:21:12;;;;;;;;;23.00;23.00;;;;;22.54;62.54;100474.20;110789;1258;22604;-48
2022/06/08 00:23:39;;;;;;;;;26.33;23.00;;;;;22.51;62.41;100477.86;110842;1258;23113;-48
2022/06/08 00:26:06;;;;;;;;;27.33;24.00;;;;;22.52;62.30;100476.73;110781;1257;19777;-48
2022/06/08 00:28:34;;;;;;;;;27.00;26.67;;;;;22.50;62.52;100472.05;110638;1257;19685;-48
2022/06/08 00:31:01;;;;;;;;;21.33;21.00;;;;;22.49;62.17;100473.98;110594;1258;20225;-48
2022/06/08 00:33:28;;;;;;;;;24.50;22.50;;;;;22.49;62.22;100468.71;110624;1257;19355;-48
2022/06/08 00:35:56;;;;;;;;;25.50;23.00;;;;;22.46;62.21;100468.94;110692;1258;19933;-49
2022/06/08 00:38:23;;;;;;;;;25.00;24.00;;;;;22.44;62.21;100469.01;110806;1257;20450;-49
2022/06/08 00:40:50;;;;;;;;;26.00;23.67;;;;;22.47;62.02;100472.07;110791;1257;22285;-48
2022/06/08 00:43:18;;;;;;;;;23.00;22.33;;;;;22.53;61.78;100469.07;110793;1258;22807;-49
2022/06/08 00:45:45;;;;;;;;;23.00;22.00;;;;;22.58;61.65;100463.09;110760;1257;20439;-48
2022/06/08 00:48:12;;;;;;;;;25.33;23.67;;;;;22.56;61.61;100462.66;110784;1257;19284;-49
2022/06/08 00:50:39;;;;;;;;;27.00;25.00;;;;;22.58;61.49;100458.98;110771;1258;19679;-48
2022/06/08 00:53:07;;;;;;;;;25.00;24.00;;;;;22.54;61.47;100458.36;110766;1257;21659;-49
2022/06/08 00:55:34;;;;;;;;;28.67;26.67;;;;;22.51;61.60;100460.68;110761;1258;19524;-48
2022/06/08 00:58:01;;;;;;;;;28.00;25.67;;;;;22.49;61.53;100460.75;110762;1257;23259;-48
2022/06/08 01:00:29;;;;;;;;;25.67;24.00;;;;;22.52;61.55;100464.33;110762;1257;20397;-49
2022/06/08 01:02:56;;;;;;;;;26.00;24.00;;;;;22.54;61.29;100465.92;110793;1258;23651;-49
2022/06/08 01:05:24;;;;;;;;;25.33;23.00;;;;;22.54;61.37;100464.40;110837;1258;19652;-49
2022/06/08 01:07:51;;;;;;;;;27.00;26.33;;;;;22.51;61.43;100460.55;110790;1258;23566;-49
2022/06/08 01:10:19;;;;;;;;;33.00;27.33;;;;;22.46;61.60;100457.14;110768;1258;19237;-48
2022/06/08 01:12:46;;;;;;;;;28.50;24.00;;;;;22.39;61.67;100458.49;110798;1257;19831;-48
2022/06/08 01:15:13;;;;;;;;;24.00;24.00;;;;;22.41;61.68;100460.04;110773;1258;20449;-48
2022/06/08 01:17:41;;;;;;;;;24.00;24.00;;;;;22.46;61.42;100451.39;110794;1257;23055;-48
2022/06/08 01:20:10;;;;;;;;;27.67;27.00;;;;;22.47;61.45;100454.55;110765;1257;19671;-49
2022/06/08 01:22:37;;;;;;;;;27.00;23.50;;;;;22.41;61.66;100453.14;110790;1258;20358;-48
2022/06/08 01:25:05;;;;;;;;;28.00;27.00;;;;;22.41;61.56;100452.46;110775;1257;19432;-47
2022/06/08 01:27:32;;;;;;;;;30.00;27.00;;;;;22.39;61.58;100453.08;110761;1257;19517;-49
2022/06/08 01:29:59;;;;;;;;;25.00;23.00;;;;;22.34;61.76;100448.20;110747;1258;20227;-48
2022/06/08 01:32:27;;;;;;;;;22.50;21.50;;;;;22.40;61.44;100452.04;110788;1257;19194;-50
2022/06/08 01:34:54;;;;;;;;;22.67;22.00;;;;;22.42;61.51;100452.45;110756;1258;19798;-48
2022/06/08 01:37:21;;;;;;;;;25.00;23.50;;;;;22.45;61.38;100448.98;110764;1258;22862;-47
2022/06/08 01:39:49;;;;;;;;;23.33;22.67;;;;;22.44;61.36;100448.39;110717;1258;19274;-49
2022/06/08 01:42:16;;;;;;;;;27.00;22.00;;;;;22.46;61.26;100451.55;110587;1258;19727;-48
2022/06/08 01:45:28;;;;;;;;;23.67;22.00;;;;;22.48;61.26;100450.77;110800;1257;20410;-48
2022/06/08 01:47:31;;;;;;;;;27.50;24.00;;;;;22.49;61.09;100446.50;110717;1258;23045;-48
2022/06/08 01:49:58;;;;;;;;;21.67;21.00;;;;;22.46;61.40;100446.38;110759;1258;19619;-49
2022/06/08 01:52:25;;;;;;;;;19.33;18.33;;;;;22.40;61.42;100443.02;110761;1257;20322;-49
2022/06/08 01:54:53;;;;;;;;;23.00;21.33;;;;;22.40;61.57;100434.64;110768;1258;19206;-49
2022/06/08 01:57:21;;;;;;;;;25.00;24.67;;;;;22.43;61.40;100436.35;110786;1258;19711;-49
2022/06/08 01:59:48;;;;;;;;;24.00;22.67;;;;;22.46;61.42;100436.88;110778;1257;20329;-49
2022/06/08 02:02:16;;;;;;;;;22.00;22.00;;;;;22.43;61.38;100435.73;110753;1258;19265;-49
2022/06/08 02:04:43;;;;;;;;;25.33;23.00;;;;;22.39;61.51;100437.70;110792;1257;19695;-49
2022/06/08 02:07:10;;;;;;;;;23.67;22.00;;;;;22.39;61.47;100436.66;110768;1258;20374;-49
2022/06/08 02:09:37;;;;;;;;;23.67;21.67;;;;;22.41;61.42;100437.80;110747;1258;22591;-48
2022/06/08 02:12:05;;;;;;;;;25.67;22.00;;;;;22.39;61.53;100430.98;110783;1257;19663;-48
2022/06/08 02:14:32;;;;;;;;;26.00;23.67;;;;;22.39;61.49;100431.90;110806;1258;20640;-48
2022/06/08 02:16:59;;;;;;;;;28.33;24.00;;;;;22.37;61.56;100432.61;110776;1258;19174;-47
2022/06/08 02:19:26;;;;;;;;;23.50;23.50;;;;;22.40;61.40;100425.31;110810;1257;23472;-47
2022/06/08 02:21:54;;;;;;;;;24.00;23.00;;;;;22.38;61.62;100426.44;110775;1258;20143;-48
2022/06/08 02:24:21;;;;;;;;;29.67;24.00;;;;;22.37;61.65;100419.37;110759;1258;19290;-48
2022/06/08 02:26:48;;;;;;;;;25.33;22.67;;;;;22.35;61.74;100423.72;110810;1258;20619;-49
2022/06/08 02:29:16;;;;;;;;;23.00;22.33;;;;;22.34;61.67;100418.67;110791;1258;20591;-49
2022/06/08 02:31:43;;;;;;;;;24.00;23.33;;;;;22.35;61.63;100418.92;110741;1258;21089;-48
2022/06/08 02:34:29;;;;;;;;;26.00;23.00;;;;;22.32;61.78;100419.91;110750;1257;19618;-48
2022/06/08 02:36:56;;;;;;;;;25.33;24.00;;;;;22.34;61.82;100420.48;110766;1258;20363;-49
2022/06/08 02:39:25;;;;;;;;;28.33;25.67;;;;;22.30;61.63;100418.46;110789;1257;20965;-49
2022/06/08 02:41:52;;;;;;;;;27.00;26.33;;;;;22.27;62.05;100419.05;110819;1258;23782;-47
2022/06/08 02:44:20;;;;;;;;;29.00;24.67;;;;;22.24;62.18;100420.55;110789;1258;21758;-47
2022/06/08 02:46:47;;;;;;;;;25.33;22.67;;;;;22.25;61.85;100420.22;110751;1257;19081;-47
2022/06/08 02:49:14;;;;;;;;;26.00;25.00;;;;;22.22;62.08;100417.70;110763;1258;19587;-48
2022/06/08 02:51:41;;;;;;;;;31.00;26.33;;;;;22.18;62.30;100415.71;110733;1257;20251;-49
2022/06/08 02:54:09;;;;;;;;;32.67;29.00;;;;;22.21;62.13;100414.34;110800;1258;19395;-48
2022/06/08 02:56:36;;;;;;;;;25.33;25.33;;;;;22.19;62.04;100414.24;110801;1258;24133;-48
2022/06/08 02:59:03;;;;;;;;;25.00;23.00;;;;;22.18;62.06;100410.90;110759;1258;20382;-48
2022/06/08 03:01:30;;;;;;;;;26.67;23.33;;;;;22.12;62.17;100413.89;110793;1257;21595;-48
2022/06/08 03:03:58;;;;;;;;;30.67;28.33;;;;;22.00;62.56;100412.61;110784;1258;19654;-49
2022/06/08 03:06:25;;;;;;;;;27.67;25.00;;;;;21.99;62.47;100408.81;110663;1257;23162;-49
2022/06/08 03:08:52;;;;;;;;;24.50;22.00;;;;;21.97;62.50;100408.67;110736;1257;24200;-47
2022/06/08 03:11:19;;;;;;;;;28.00;26.67;;;;;22.00;62.55;100405.30;110703;1258;22626;-49
2022/06/08 03:13:47;;;;;;;;;28.00;27.33;;;;;22.07;62.43;100406.48;110773;1257;20607;-49
2022/06/08 03:16:14;;;;;;;;;29.67;27.00;;;;;22.09;62.18;100409.18;110771;1258;20120;-48
2022/06/08 03:18:41;;;;;;;;;27.00;26.00;;;;;21.99;62.30;100411.13;110781;1257;19551;-48
2022/06/08 03:21:09;;;;;;;;;30.00;27.00;;;;;21.90;62.65;100415.73;110755;1258;22408;-49
2022/06/08 03:23:36;;;;;;;;;26.00;25.00;;;;;21.93;62.71;100416.20;110786;1257;19199;-47
2022/06/08 03:26:03;;;;;;;;;31.00;26.00;;;;;22.00;62.36;100415.01;110770;1258;19616;-48
2022/06/08 03:28:31;;;;;;;;;31.00;27.67;;;;;22.07;62.23;100419.54;110747;1258;20304;-49
2022/06/08 03:30:58;;;;;;;;;33.33;27.67;;;;;22.16;62.04;100422.09;110689;1258;23608;-49
2022/06/08 03:33:25;;;;;;;;;39.33;34.33;;;;;22.19;61.89;100425.44;110756;1258;19628;-49
2022/06/08 03:35:53;;;;;;;;;34.67;32.33;;;;;22.22;61.59;100421.70;110804;1257;20506;-48
2022/06/08 03:38:20;;;;;;;;;39.67;33.67;;;;;22.27;61.75;100423.14;110751;1257;19320;-48
2022/06/08 03:40:47;;;;;;;;;37.67;33.33;;;;;22.32;61.39;100421.34;110802;1257;19858;-49
2022/06/08 03:43:15;;;;;;;;;35.50;32.00;;;;;22.29;61.44;100427.49;110681;1257;23285;-49
2022/06/08 03:45:44;;;;;;;;;31.67;30.00;;;;;22.29;61.67;100429.20;110722;1258;19219;-49
2022/06/08 03:48:11;;;;;;;;;31.67;29.67;;;;;22.31;61.53;100430.99;110794;1258;21235;-49
2022/06/08 03:50:40;;;;;;;;;33.00;29.00;;;;;22.34;61.52;100433.04;110843;1257;20233;-48
2022/06/08 03:53:07;;;;;;;;;35.00;31.00;;;;;22.34;61.52;100440.33;110766;1258;19229;-49
2022/06/08 03:55:34;;;;;;;;;35.67;30.33;;;;;22.34;61.44;100435.77;110745;1257;19711;-48
2022/06/08 03:58:02;;;;;;;;;35.00;33.50;;;;;22.33;61.57;100440.92;110756;1257;20403;-49
2022/06/08 04:00:29;;;;;;;;;31.00;28.33;;;;;22.27;61.67;100438.51;110798;1257;19154;-49
2022/06/08 04:02:56;;;;;;;;;31.00;29.67;;;;;22.24;61.95;100441.16;110833;1258;21196;-47
2022/06/08 04:05:24;;;;;;;;;28.00;27.00;;;;;22.29;61.76;100441.21;110809;1258;20308;-48
2022/06/08 04:07:51;;;;;;;;;32.33;30.67;;;;;22.31;61.64;100444.48;110772;1257;23183;-49
2022/06/08 04:10:19;;;;;;;;;31.00;27.33;;;;;22.33;61.51;100444.63;110767;1258;21289;-48
2022/06/08 04:12:46;;;;;;;;;30.00;26.00;;;;;22.36;61.84;100443.91;110760;1257;20412;-48
2022/06/08 04:15:41;;;;;;;;;31.33;28.67;;;;;22.39;61.81;100444.70;110780;1258;19275;-47
2022/06/08 04:18:03;;;;;;;;;31.00;27.00;;;;;22.39;61.71;100443.00;110832;1258;19586;-48
2022/06/08 04:20:30;;;;;;;;;31.33;26.33;;;;;22.38;61.72;100443.65;110811;1258;23747;-49
2022/06/08 04:22:57;;;;;;;;;26.00;24.33;;;;;22.40;61.70;100441.38;110771;1258;19267;-48
2022/06/08 04:25:24;;;;;;;;;31.00;28.00;;;;;22.35;61.80;100445.90;110807;1258;20049;-48
2022/06/08 04:27:51;;;;;;;;;30.00;29.67;;;;;22.34;61.95;100444.41;110748;1257;22924;-48
2022/06/08 04:30:19;;;;;;;;;27.33;25.33;;;;;22.36;61.81;100447.05;110748;1258;19248;-48
2022/06/08 04:32:46;;;;;;;;;29.67;27.67;;;;;22.41;61.70;100449.70;110816;1258;24234;-48
2022/06/08 04:35:13;;;;;;;;;31.33;27.33;;;;;22.36;61.70;100447.35;110768;1258;20315;-48
2022/06/08 04:37:41;;;;;;;;;27.33;26.33;;;;;22.38;61.87;100449.77;110750;1258;19293;-48
2022/06/08 04:40:08;;;;;;;;;32.50;27.50;;;;;22.31;61.96;100449.72;110783;1257;24213;-48
2022/06/08 04:42:35;;;;;;;;;30.67;25.67;;;;;22.32;62.00;100445.13;110750;1258;20354;-48
2022/06/08 04:45:02;;;;;;;;;35.00;30.00;;;;;22.31;62.04;100446.08;110687;1258;19242;-49
2022/06/08 04:47:30;;;;;;;;;31.00;30.00;;;;;22.31;62.00;100447.61;110781;1258;19941;-51
2022/06/08 04:49:57;;;;;;;;;34.33;30.00;;;;;22.24;62.24;100444.64;110781;1258;20190;-48
2022/06/08 04:52:24;;;;;;;;;30.00;29.50;;;;;22.26;62.24;100442.36;110722;1257;19255;-49
2022/06/08 04:54:52;;;;;;;;;36.00;32.50;;;;;22.25;62.39;100441.05;110772;1257;21212;-48
2022/06/08 04:57:19;;;;;;;;;32.00;30.67;;;;;22.23;62.41;100439.09;110745;1257;20393;-48
2022/06/08 04:59:46;;;;;;;;;31.00;30.00;;;;;22.23;62.25;100432.63;110770;1257;19332;-47
2022/06/08 05:02:42;;;;;;;;;34.50;31.50;;;;;22.24;62.29;100432.34;110706;1257;19669;-49
2022/06/08 05:05:01;;;;;;;;;37.50;31.00;;;;;22.27;62.13;100441.23;110731;1258;20447;-47
2022/06/08 05:07:29;;;;;;;;;36.67;30.00;;;;;22.28;62.19;100442.83;110761;1258;19320;-48
2022/06/08 05:09:56;;;;;;;;;39.00;34.00;;;;;22.30;62.24;100441.85;110770;1258;19854;-47
2022/06/08 05:12:23;;;;;;;;;38.33;35.00;;;;;22.30;62.22;100435.64;110771;1257;23608;-47
2022/06/08 05:14:51;;;;;;;;;37.00;34.00;;;;;22.33;62.13;100435.24;110791;1258;19134;-48
2022/06/08 05:17:18;;;;;;;;;56.00;42.33;;;;;22.39;62.02;100438.50;110696;1258;22396;-48
2022/06/08 05:19:45;;;;;;;;;38.00;34.67;;;;;22.49;61.73;100432.39;110686;1258;20301;-46
2022/06/08 05:22:13;;;;;;;;;39.67;38.00;;;;;22.58;61.67;100429.44;110769;1257;19447;-48
2022/06/08 05:24:40;;;;;;;;;38.00;34.67;;;;;22.72;61.44;100428.80;110697;1257;19851;-49
2022/06/08 05:27:07;;;;;;;;;37.00;31.00;;;;;22.85;61.13;100433.29;110710;1258;25716;-48
2022/06/08 05:29:34;;;;;;;;;33.00;28.00;;;;;23.00;61.82;100442.50;110718;1258;19289;-48
2022/06/08 05:32:02;;;;;;;;;34.33;32.00;;;;;23.16;61.76;100445.48;110463;1257;19547;-52
2022/06/08 05:34:29;;;;;;;;;34.00;28.33;;;;;23.22;61.44;100445.31;110646;1258;21377;-48
2022/06/08 05:36:56;;;;;;;;;28.33;27.00;;;;;23.21;61.49;100451.75;110560;1258;19298;-49
2022/06/08 05:39:24;;;;;;;;;30.67;28.67;;;;;23.26;61.38;100454.39;110732;1257;19732;-48
2022/06/08 05:41:51;;;;;;;;;30.33;28.33;;;;;23.31;61.51;100454.16;109793;1258;1297181;-49
2022/06/08 05:44:20;;;;;;;;;31.00;28.00;;;;;23.37;61.46;100456.23;110713;1258;19265;-47
2022/06/08 05:46:48;;;;;;;;;35.00;30.67;;;;;23.37;61.31;100450.08;110797;1257;23388;-49
2022/06/08 05:49:15;;;;;;;;;31.00;27.00;;;;;23.34;61.40;100448.45;110615;1258;23642;-47
2022/06/08 05:51:43;;;;;;;;;35.33;27.00;;;;;23.31;61.24;100446.27;110701;1258;19299;-49
2022/06/08 05:54:10;;;;;;;;;31.67;27.67;;;;;23.30;61.32;100442.92;110719;1258;23161;-47
2022/06/08 05:56:37;;;;;;;;;27.00;25.00;;;;;23.27;61.06;100451.41;110785;1258;22374;-47
2022/06/08 05:59:05;;;;;;;;;28.67;26.33;;;;;23.24;61.02;100447.80;110738;1258;19293;-48
2022/06/08 06:01:33;;;;;;;;;30.67;26.67;;;;;23.25;61.16;100448.11;110740;1257;23256;-47
2022/06/08 06:04:03;;;;;;;;;27.33;25.00;;;;;23.32;61.08;100446.17;110716;1257;23484;-48
2022/06/08 06:06:31;;;;;;;;;31.67;28.33;;;;;23.36;60.93;100444.94;110752;1258;19184;-49
2022/06/08 06:08:59;;;;;;;;;31.33;27.33;;;;;23.39;60.93;100443.40;110763;1258;19769;-49
2022/06/08 06:11:26;;;;;;;;;40.50;36.00;;;;;23.28;60.80;100444.55;110736;1257;23151;-48
2022/06/08 06:13:54;;;;;;;;;28.00;27.50;;;;;23.10;61.18;100439.84;110759;1257;19192;-48
2022/06/08 06:16:21;;;;;;;;;44.67;37.00;;;;;23.03;61.33;100435.04;110737;1258;19606;-48
2022/06/08 06:18:48;;;;;;;;;48.00;37.33;;;;;22.87;61.66;100439.66;110773;1258;21143;-47
2022/06/08 06:21:16;;;;;;;;;42.33;36.67;;;;;22.74;61.82;100446.77;110723;1258;19700;-49
2022/06/08 06:23:43;;;;;;;;;40.00;33.50;;;;;22.61;62.17;100449.05;110788;1257;21393;-47
2022/06/08 06:26:10;;;;;;;;;40.33;32.33;;;;;22.69;62.20;100448.86;110768;1257;20288;-48
2022/06/08 06:28:38;;;;;;;;;36.33;35.33;;;;;22.78;62.05;100446.80;110728;1258;19259;-47
2022/06/08 06:31:05;;;;;;;;;47.00;39.00;;;;;22.78;62.02;100449.48;110740;1257;19459;-48
2022/06/08 06:33:32;;;;;;;;;43.33;39.33;;;;;22.85;61.86;100454.06;110758;1257;20289;-48
2022/06/08 06:36:00;;;;;;;;;46.67;41.33;;;;;22.92;61.86;100453.77;110788;1257;19540;-48
2022/06/08 06:38:27;;;;;;;;;48.67;43.00;;;;;23.00;61.87;100450.75;110743;1258;24410;-48
2022/06/08 06:40:54;;;;;;;;;52.67;41.33;;;;;23.01;62.14;100450.72;110659;1257;20339;-47
2022/06/08 06:43:22;;;;;;;;;55.67;41.00;;;;;22.90;62.24;100447.80;110610;1257;22720;-47
2022/06/08 06:45:49;;;;;;;;;57.67;42.00;;;;;22.90;62.40;100449.96;110674;1257;19601;-47
2022/06/08 06:48:16;;;;;;;;;59.67;44.00;;;;;22.93;62.26;100450.27;110678;1258;20361;-48
2022/06/08 06:50:43;;;;;;;;;54.33;42.33;;;;;22.93;62.09;100451.45;110763;1258;20770;-49
2022/06/08 06:53:11;;;;;;;;;60.33;46.00;;;;;22.93;62.19;100450.40;110712;1258;19684;-49
2022/06/08 06:55:38;;;;;;;;;50.00;42.00;;;;;22.91;61.90;100448.55;110741;1258;22987;-50
2022/06/08 06:58:05;;;;;;;;;46.50;41.00;;;;;22.87;62.02;100448.13;110764;1257;19369;-49
2022/06/08 07:00:33;;;;;;;;;48.50;41.00;;;;;22.86;61.99;100449.91;110733;1258;19872;-48
2022/06/08 07:03:00;;;;;;;;;44.00;40.00;;;;;22.85;61.95;100451.41;110751;1257;20410;-50
2022/06/08 07:05:27;;;;;;;;;50.50;41.00;;;;;22.81;62.15;100451.48;110753;1257;22970;-49
2022/06/08 07:07:54;;;;;;;;;48.00;39.67;;;;;22.80;62.05;100451.44;110727;1257;19700;-48
2022/06/08 07:10:22;;;;;;;;;47.33;39.00;;;;;22.74;61.91;100450.14;110753;1257;20518;-50
2022/06/08 07:12:49;;;;;;;;;43.67;40.67;;;;;22.66;61.88;100449.85;110751;1258;23586;-51
2022/06/08 07:15:16;;;;;;;;;52.33;39.00;;;;;22.65;61.72;100448.95;110769;1257;19609;-48
2022/06/08 07:17:44;;;;;;;;;47.00;39.67;;;;;22.68;61.76;100448.77;110808;1257;20231;-49
2022/06/08 07:20:11;;;;;;;;;48.67;36.00;;;;;22.69;61.75;100449.16;110768;1258;19262;-50
2022/06/08 07:22:38;;;;;;;;;49.33;39.33;;;;;22.74;61.56;100446.42;110750;1258;19679;-50
2022/06/08 07:25:05;;;;;;;;;46.33;38.67;;;;;22.81;61.71;100444.02;110730;1258;22290;-50
2022/06/08 07:27:33;;;;;;;;;43.67;38.00;;;;;22.84;61.53;100440.00;110751;1258;23518;-48
2022/06/08 07:30:00;;;;;;;;;48.67;37.67;;;;;22.82;61.62;100439.52;110760;1257;19681;-48
2022/06/08 07:32:27;;;;;;;;;40.67;39.00;;;;;22.76;61.66;100434.88;110528;1257;21712;-49
2022/06/08 07:34:54;;;;;;;;;52.33;41.00;;;;;22.68;61.80;100434.02;110692;1257;23260;-50
2022/06/08 07:37:22;;;;;;;;;46.67;39.33;;;;;22.68;61.89;100430.61;110714;1257;19824;-49
2022/06/08 07:39:49;;;;;;;;;41.50;37.00;;;;;22.79;61.88;100428.81;110761;1257;20462;-47
2022/06/08 07:42:17;;;;;;;;;45.00;38.00;;;;;22.86;61.81;100427.09;110751;1258;19169;-49
2022/06/08 07:44:44;;;;;;;;;42.00;36.33;;;;;22.97;61.40;100428.27;110817;1258;19502;-50
2022/06/08 07:47:12;;;;;;;;;38.33;35.33;;;;;22.99;61.41;100427.66;110744;1258;23304;-47
2022/06/08 07:49:41;;;;;;;;;39.00;35.00;;;;;23.00;61.40;100422.70;110756;1257;19458;-49
2022/06/08 07:52:08;;;;;;;;;39.00;34.00;;;;;23.02;61.33;100419.95;110757;1257;24139;-49
2022/06/08 07:54:35;;;;;;;;;41.50;36.00;;;;;23.02;61.46;100418.35;110625;1258;20234;-48
2022/06/08 07:57:03;;;;;;;;;43.50;39.00;;;;;22.98;61.43;100422.17;110646;1258;23083;-49
2022/06/08 07:59:30;;;;;;;;;42.67;35.67;;;;;23.01;61.31;100424.14;110718;1257;19534;-49
2022/06/08 08:01:57;;;;;;;;;46.00;40.00;;;;;22.97;61.38;100427.81;110538;1258;20422;-49
2022/06/08 08:04:25;;;;;;;;;42.00;37.50;;;;;22.61;61.88;100425.05;110615;1258;20910;-48
2022/06/08 08:06:52;;;;;;;;;48.00;40.67;;;;;22.48;62.38;100424.73;110656;1257;19689;-49
2022/06/08 08:09:22;;;;;;;;;39.00;34.67;;;;;22.41;62.55;100424.91;110714;1257;21386;-49
2022/06/08 08:11:50;;;;;;;;;45.00;39.00;;;;;22.55;61.98;100425.55;110752;1258;23639;-48
2022/06/08 08:14:17;;;;;;;;;44.00;37.00;;;;;22.62;62.03;100426.91;110760;1257;19554;-50
2022/06/08 08:16:45;;;;;;;;;41.67;32.33;;;;;22.61;62.06;100425.10;110745;1258;21736;-51
2022/06/08 08:19:12;;;;;;;;;46.00;35.00;;;;;22.62;62.23;100429.30;110751;1258;19250;-50
2022/06/08 08:21:39;;;;;;;;;40.67;33.33;;;;;22.68;62.36;100426.06;110750;1258;19735;-50
2022/06/08 08:24:06;;;;;;;;;45.00;34.67;;;;;22.47;62.60;100425.38;110719;1258;20601;-50
2022/06/08 08:26:34;;;;;;;;;38.33;35.00;;;;;22.04;63.36;100428.65;110780;1258;19341;-52
2022/06/08 08:29:01;;;;;;;;;38.67;34.00;;;;;22.21;63.23;100431.00;110560;1258;19759;-51
2022/06/08 08:31:28;;;;;;;;;43.50;35.00;;;;;22.46;62.60;100433.20;110679;1257;20521;-49
2022/06/08 08:33:56;;;;;;;;;34.67;28.67;;;;;22.61;61.91;100433.20;110702;1258;19278;-50
2022/06/08 08:36:23;;;;;;;;;34.50;33.50;;;;;22.81;61.62;100437.41;110612;1257;19593;-49
2022/06/08 08:38:50;;;;;;;;;33.67;32.00;;;;;22.88;61.90;100433.75;110777;1257;20438;-50
2022/06/08 08:43:59;;;;;;;;;37.00;32.00;;;;;23.04;61.65;100433.41;110561;1257;19583;-51
2022/06/08 08:46:26;;;;;;;;;90.00;65.33;;;;;23.04;61.53;100435.98;110624;1258;20951;-50
2022/06/08 08:48:54;;;;;;;;;126.33;95.00;;;;;22.98;61.48;100430.55;110709;1258;19112;-49
2022/06/08 08:51:21;;;;;;;;;111.00;86.33;;;;;23.01;61.61;100433.17;110584;1258;19592;-51
2022/06/08 08:53:48;;;;;;;;;197.25;141.25;;;;;23.07;61.96;100433.94;110727;1258;25060;-51
2022/06/08 08:56:15;;;;;;;;;172.50;139.25;;;;;23.21;62.67;100436.60;110681;1258;19139;-51
2022/06/08 08:58:42;;;;;;;;;190.25;151.00;;;;;23.37;62.74;100439.52;110640;1257;19530;-49
2022/06/08 09:01:10;;;;;;;;;4285.00;4285.00;;;;;23.44;62.55;100439.98;110698;1258;23029;-48
2022/06/08 09:03:39;;;;;;;;;4296.00;4296.00;;;;;23.50;63.17;100437.36;110676;1257;19218;-50
2022/06/08 09:06:07;;;;;;;;;187.25;156.25;;;;;23.54;62.66;100434.56;110738;1258;20229;-52
2022/06/08 09:08:34;;;;;;;;;287.75;231.50;;;;;23.32;62.43;100433.02;110790;1258;20630;-51
2022/06/08 09:11:01;;;;;;;;;152.25;124.00;;;;;23.31;62.86;100430.39;110656;1258;23404;-51
2022/06/08 09:13:29;;;;;;;;;96.00;82.00;;;;;23.46;63.82;100429.30;110682;1257;19794;-50
2022/06/08 09:15:56;;;;;;;;;86.33;66.33;;;;;23.56;63.65;100433.05;110646;1258;21903;-51
2022/06/08 09:18:23;;;;;;;;;76.00;60.00;;;;;23.61;63.46;100432.09;110726;1258;19094;-51
2022/06/08 09:20:51;;;;;;;;;68.00;54.00;;;;;23.61;63.10;100430.05;110748;1257;19596;-50
2022/06/08 09:23:18;;;;;;;;;64.00;52.00;;;;;23.64;62.95;100431.02;110795;1258;20555;-51
2022/06/08 09:25:46;;;;;;;;;54.33;42.00;;;;;23.63;62.59;100433.71;110742;1258;19312;-50
2022/06/08 09:28:13;;;;;;;;;54.67;41.67;;;;;23.61;62.46;100436.98;110655;1257;24797;-51
2022/06/08 09:30:40;;;;;;;;;45.00;38.50;;;;;23.59;62.36;100432.89;110793;1258;20546;-51
2022/06/08 09:33:08;;;;;;;;;42.00;36.50;;;;;23.57;61.80;100436.52;110650;1258;19373;-50
2022/06/08 09:35:35;;;;;;;;;43.00;34.33;;;;;23.55;61.68;100434.54;110809;1257;19861;-51
2022/06/08 09:38:03;;;;;;;;;40.50;33.00;;;;;23.48;61.07;100433.40;110718;1258;20420;-50
2022/06/08 09:40:40;;;;;;;;;39.00;32.33;;;;;23.15;60.76;100426.50;110716;1257;20435;-53
2022/06/08 09:43:07;;;;;;;;;39.67;35.00;;;;;23.21;60.83;100420.83;110741;1258;19685;-50
2022/06/08 09:45:35;;;;;;;;;38.00;32.50;;;;;23.32;60.69;100419.16;110730;1257;20642;-50
2022/06/08 09:53:43;;;;;;;;;38.00;33.00;;;;;23.43;60.00;100416.75;110183;1264;21106;-50
2022/06/08 09:56:11;;;;;;;;;32.33;30.67;;;;;23.57;60.05;100415.89;110152;1264;20972;-51
2022/06/08 09:58:38;;;;;;;;;40.00;35.33;;;;;23.63;59.84;100414.39;110138;1264;19570;-51
2022/06/08 10:01:05;;;;;;;;;37.33;33.33;;;;;23.58;59.47;100411.15;110205;1264;22307;-51
2022/06/08 10:03:33;;;;;;;;;29.50;29.00;;;;;23.31;59.24;100405.73;110212;1263;19250;-50
2022/06/08 10:06:00;;;;;;;;;36.50;30.50;;;;;23.18;58.87;100400.95;110223;1264;19584;-50
2022/06/08 10:08:27;;;;;;;;;39.67;36.00;;;;;23.32;58.58;100399.23;110231;1263;22255;-50
2022/06/08 10:10:55;;;;;;;;;38.50;33.00;;;;;23.48;58.01;100398.26;110232;1264;19233;-52
2022/06/08 10:13:23;;;;;;;;;32.50;30.00;;;;;23.47;56.96;100394.25;110239;1263;19523;-51
2022/06/08 10:15:50;;;;;;;;;25.00;24.00;;;;;23.28;56.54;100391.94;110255;1264;22808;-51
2022/06/08 10:18:18;;;;;;;;;27.50;25.00;;;;;23.16;56.07;100388.59;110151;1263;20547;-50
2022/06/08 10:20:45;;;;;;;;;44.33;38.00;;;;;23.34;55.33;100380.22;110239;1263;19765;-49
2022/06/08 10:23:13;;;;;;;;;37.33;32.67;;;;;23.42;55.01;100376.81;110202;1263;21188;-50
2022/06/08 10:25:40;;;;;;;;;30.67;28.00;;;;;23.44;54.69;100379.60;110250;1264;19253;-50
2022/06/08 10:28:07;;;;;;;;;34.67;28.67;;;;;23.37;54.19;100377.84;110387;1258;26253;-50
2022/06/08 10:30:35;;;;;;;;;30.00;26.67;;;;;23.25;54.09;100377.31;110733;1258;20314;-50
2022/06/08 10:33:02;;;;;;;;;31.00;29.00;;;;;23.31;54.06;100378.09;110800;1257;23247;-48
2022/06/08 10:35:29;;;;;;;;;25.50;24.50;;;;;23.52;53.54;100375.43;110804;1258;19906;-51
2022/06/08 10:37:56;;;;;;;;;24.00;23.00;;;;;23.70;52.95;100373.50;110805;1258;20308;-50
2022/06/08 10:40:24;;;;;;;;;22.00;20.00;;;;;23.75;51.95;100377.81;110747;1257;19245;-52
2022/06/08 10:42:51;;;;;;;;;24.33;22.33;;;;;23.53;51.54;100382.83;110775;1258;19633;-50
2022/06/08 10:45:18;;;;;;;;;22.67;20.00;;;;;23.56;50.66;100382.42;110786;1258;20576;-48
2022/06/08 10:47:46;;;;;;;;;23.00;19.00;;;;;23.60;50.54;100380.09;110812;1257;23581;-51
2022/06/08 10:50:13;;;;;;;;;19.00;15.00;;;;;23.59;49.77;100381.19;110784;1258;23196;-50
2022/06/08 10:52:41;;;;;;;;;17.33;14.67;;;;;23.47;48.91;100383.61;110789;1257;23055;-50
2022/06/08 10:55:08;;;;;;;;;14.67;14.67;;;;;23.48;48.20;100382.27;110667;1257;19373;-55
2022/06/08 10:57:36;;;;;;;;;18.00;15.33;;;;;23.42;47.56;100383.50;110719;1258;19727;-50
2022/06/08 11:00:03;;;;;;;;;19.00;18.33;;;;;23.39;47.83;100384.37;110803;1257;21695;-50
2022/06/08 11:02:31;;;;;;;;;18.00;15.67;;;;;23.48;47.85;100381.89;110760;1257;19350;-51
2022/06/08 11:04:58;;;;;;;;;16.00;15.00;;;;;23.56;47.97;100382.22;110750;1257;24083;-52
2022/06/08 11:07:27;;;;;;;;;19.00;19.00;;;;;23.59;48.00;100382.02;110777;1258;20420;-49
2022/06/08 11:09:55;;;;;;;;;21.33;19.00;;;;;23.55;48.20;100378.36;110746;1258;22967;-51
2022/06/08 11:12:22;;;;;;;;;18.00;16.33;;;;;23.51;48.47;100382.70;110745;1257;19816;-51